THY27LB LDZA-LQSA
Flight info
| Callsign | THY27LB |
|---|---|
| Flight time | 0h 35m |
| Altitude | 29000 |
| Route | TEBLI1W TEBLI DCT BOSNA BOSNA1P |
| Aircraft | B38M/M-SDE1FGHILORVWXY/HB1 |
Departure
| Time | 2026-05-08 14:48 |
|---|---|
| Airport | Zagreb Franjo Tuđman International Airport (LDZA) |
Arrival
| Time | 2026-05-08 15:23 |
|---|---|
| Airport | Sarajevo International Airport (LQSA) |
| Time | Latitude | Longitude | Altitude | Speed | Heading |
|---|---|---|---|---|---|
| 2026-05-08 14:31 | 45.74237 | 16.07923 | 363 ft | 0 kts | 136° |
| 2026-05-08 14:32 | 45.74153 | 16.07795 | 363 ft | 0 kts | 136° |
| 2026-05-08 14:40 | 45.74155 | 16.07793 | 361 ft | 2 kts | 136° |
| 2026-05-08 14:40 | 45.74174 | 16.07767 | 361 ft | 4 kts | 136° |
| 2026-05-08 14:41 | 45.74193 | 16.07741 | 361 ft | 4 kts | 137° |
| 2026-05-08 14:41 | 45.74214 | 16.07722 | 362 ft | 4 kts | 176° |
| 2026-05-08 14:41 | 45.74236 | 16.07733 | 362 ft | 4 kts | 224° |
| 2026-05-08 14:41 | 45.74240 | 16.07739 | 362 ft | 1 kts | 226° |
| 2026-05-08 14:44 | 45.74233 | 16.07728 | 362 ft | 5 kts | 226° |
| 2026-05-08 14:44 | 45.74180 | 16.07647 | 365 ft | 15 kts | 226° |
| 2026-05-08 14:44 | 45.74096 | 16.07520 | 362 ft | 22 kts | 226° |
| 2026-05-08 14:44 | 45.74075 | 16.07390 | 365 ft | 10 kts | 310° |
| 2026-05-08 14:45 | 45.74131 | 16.07318 | 362 ft | 12 kts | 317° |
| 2026-05-08 14:45 | 45.74197 | 16.07232 | 362 ft | 14 kts | 317° |
| 2026-05-08 14:45 | 45.74216 | 16.07167 | 363 ft | 4 kts | 250° |
| 2026-05-08 14:45 | 45.74195 | 16.07123 | 362 ft | 8 kts | 230° |
| 2026-05-08 14:46 | 45.74115 | 16.07002 | 362 ft | 26 kts | 227° |
| 2026-05-08 14:46 | 45.73948 | 16.06746 | 362 ft | 44 kts | 226° |
| 2026-05-08 14:46 | 45.73757 | 16.06458 | 363 ft | 20 kts | 229° |
| 2026-05-08 14:46 | 45.73752 | 16.06380 | 363 ft | 4 kts | 311° |
| 2026-05-08 14:47 | 45.73810 | 16.06300 | 364 ft | 20 kts | 316° |
| 2026-05-08 14:47 | 45.73889 | 16.06264 | 363 ft | 9 kts | 41° |
| 2026-05-08 14:47 | 45.74020 | 16.06461 | 363 ft | 66 kts | 46° |
| 2026-05-08 14:47 | 45.74544 | 16.07259 | 363 ft | 148 kts | 47° |
| 2026-05-08 14:48 | 45.75291 | 16.08478 | 923 ft | 168 kts | 50° |
| 2026-05-08 14:48 | 45.75953 | 16.09847 | 1965 ft | 171 kts | 70° |
| 2026-05-08 14:48 | 45.76069 | 16.11572 | 2886 ft | 177 kts | 101° |
| 2026-05-08 14:48 | 45.75718 | 16.13196 | 4004 ft | 169 kts | 108° |
| 2026-05-08 14:49 | 45.75385 | 16.14917 | 4484 ft | 191 kts | 101° |
| 2026-05-08 14:49 | 45.75125 | 16.16870 | 5129 ft | 202 kts | 98° |
| 2026-05-08 14:49 | 45.74873 | 16.18976 | 5590 ft | 228 kts | 98° |
| 2026-05-08 14:49 | 45.74569 | 16.21265 | 6023 ft | 204 kts | 101° |
| 2026-05-08 14:50 | 45.74376 | 16.22376 | 8365 ft | 88 kts | 106° |
| 2026-05-08 14:50 | 45.74165 | 16.23482 | 6683 ft | 179 kts | 101° |
| 2026-05-08 14:50 | 45.73802 | 16.25693 | 5643 ft | 236 kts | 103° |
| 2026-05-08 14:50 | 45.73434 | 16.27979 | 6411 ft | 233 kts | 99° |
| 2026-05-08 14:51 | 45.72995 | 16.30202 | 7376 ft | 242 kts | 117° |
| 2026-05-08 14:51 | 45.71929 | 16.32176 | 8005 ft | 259 kts | 135° |
| 2026-05-08 14:51 | 45.70649 | 16.34026 | 8951 ft | 262 kts | 136° |
| 2026-05-08 14:51 | 45.69332 | 16.35872 | 9914 ft | 267 kts | 137° |
| 2026-05-08 14:52 | 45.67979 | 16.37725 | 10796 ft | 271 kts | 137° |
| 2026-05-08 14:52 | 45.64602 | 16.40568 | 11950 ft | 303 kts | 157° |
| 2026-05-08 14:52 | 45.62608 | 16.41811 | 12376 ft | 323 kts | 157° |
| 2026-05-08 14:53 | 45.60506 | 16.43109 | 12751 ft | 343 kts | 157° |
| 2026-05-08 14:53 | 45.58245 | 16.44496 | 13086 ft | 362 kts | 157° |
| 2026-05-08 14:53 | 45.55879 | 16.45943 | 13530 ft | 376 kts | 157° |
| 2026-05-08 14:53 | 45.53446 | 16.47427 | 14226 ft | 381 kts | 157° |
| 2026-05-08 14:54 | 45.50998 | 16.48917 | 14883 ft | 385 kts | 157° |
| 2026-05-08 14:54 | 45.48522 | 16.50424 | 15530 ft | 389 kts | 157° |
| 2026-05-08 14:54 | 45.46018 | 16.51946 | 16191 ft | 393 kts | 158° |
| 2026-05-08 14:54 | 45.43487 | 16.53484 | 16855 ft | 397 kts | 158° |
| 2026-05-08 14:55 | 45.40940 | 16.55030 | 17503 ft | 400 kts | 158° |
| 2026-05-08 14:55 | 45.38360 | 16.56594 | 18116 ft | 404 kts | 158° |
| 2026-05-08 14:55 | 45.35759 | 16.58169 | 18678 ft | 408 kts | 158° |
| 2026-05-08 14:55 | 45.33131 | 16.59760 | 19222 ft | 411 kts | 158° |
| 2026-05-08 14:56 | 45.30525 | 16.61335 | 19764 ft | 414 kts | 159° |
| 2026-05-08 14:56 | 45.27861 | 16.62943 | 20312 ft | 417 kts | 159° |
| 2026-05-08 14:56 | 45.25190 | 16.64554 | 20841 ft | 419 kts | 159° |
| 2026-05-08 14:56 | 45.22490 | 16.66182 | 21372 ft | 422 kts | 159° |
| 2026-05-08 14:57 | 45.19909 | 16.68222 | 21880 ft | 429 kts | 144° |
| 2026-05-08 14:57 | 45.17660 | 16.71042 | 22414 ft | 433 kts | 140° |
| 2026-05-08 14:57 | 45.15429 | 16.73931 | 22881 ft | 437 kts | 140° |
| 2026-05-08 14:57 | 45.13192 | 16.76862 | 23383 ft | 439 kts | 140° |
| 2026-05-08 14:58 | 45.10950 | 16.79820 | 23836 ft | 442 kts | 140° |
| 2026-05-08 14:58 | 45.08687 | 16.82813 | 24234 ft | 445 kts | 140° |
| 2026-05-08 14:58 | 45.06420 | 16.85811 | 24628 ft | 448 kts | 140° |
| 2026-05-08 14:58 | 45.04129 | 16.88838 | 24944 ft | 452 kts | 140° |
| 2026-05-08 14:59 | 45.01846 | 16.91852 | 25032 ft | 458 kts | 140° |
| 2026-05-08 14:59 | 44.97108 | 16.98095 | 25011 ft | 471 kts | 140° |
| 2026-05-08 14:59 | 44.94688 | 17.01278 | 25023 ft | 477 kts | 140° |
| 2026-05-08 15:00 | 44.92256 | 17.04475 | 25021 ft | 479 kts | 139° |
| 2026-05-08 15:00 | 44.89811 | 17.07683 | 25024 ft | 480 kts | 139° |
| 2026-05-08 15:00 | 44.87362 | 17.10892 | 25024 ft | 480 kts | 139° |
| 2026-05-08 15:00 | 44.84911 | 17.14101 | 25021 ft | 481 kts | 139° |
| 2026-05-08 15:01 | 44.82454 | 17.17313 | 25024 ft | 482 kts | 139° |
| 2026-05-08 15:01 | 44.79998 | 17.20520 | 25023 ft | 482 kts | 139° |
| 2026-05-08 15:01 | 44.77568 | 17.23688 | 25024 ft | 482 kts | 139° |
| 2026-05-08 15:01 | 44.75098 | 17.26906 | 25027 ft | 482 kts | 139° |
| 2026-05-08 15:02 | 44.72634 | 17.30112 | 25018 ft | 481 kts | 139° |
| 2026-05-08 15:02 | 44.70179 | 17.33303 | 25024 ft | 480 kts | 139° |
| 2026-05-08 15:02 | 44.67728 | 17.36484 | 25028 ft | 480 kts | 139° |
| 2026-05-08 15:02 | 44.65272 | 17.39668 | 25026 ft | 480 kts | 139° |
| 2026-05-08 15:03 | 44.62818 | 17.42845 | 25029 ft | 480 kts | 139° |
| 2026-05-08 15:03 | 44.60365 | 17.46017 | 25031 ft | 480 kts | 139° |
| 2026-05-08 15:03 | 44.57919 | 17.49177 | 24880 ft | 475 kts | 139° |
| 2026-05-08 15:03 | 44.55503 | 17.52294 | 24641 ft | 471 kts | 139° |
| 2026-05-08 15:04 | 44.53092 | 17.55401 | 24410 ft | 469 kts | 139° |
| 2026-05-08 15:04 | 44.51499 | 17.57450 | 24244 ft | 469 kts | 139° |
| 2026-05-08 15:04 | 44.49096 | 17.60541 | 24018 ft | 469 kts | 139° |
| 2026-05-08 15:04 | 44.46695 | 17.63626 | 23790 ft | 468 kts | 139° |
| 2026-05-08 15:05 | 44.43514 | 17.67708 | 23456 ft | 466 kts | 138° |
| 2026-05-08 15:05 | 44.41901 | 17.69776 | 23269 ft | 465 kts | 138° |
| 2026-05-08 15:05 | 44.39530 | 17.72812 | 22998 ft | 462 kts | 139° |
| 2026-05-08 15:05 | 44.37182 | 17.75889 | 22727 ft | 460 kts | 134° |
| 2026-05-08 15:06 | 44.35082 | 17.79167 | 22284 ft | 447 kts | 133° |
| 2026-05-08 15:06 | 44.33049 | 17.82396 | 21764 ft | 439 kts | 132° |
| 2026-05-08 15:06 | 44.31053 | 17.85574 | 21265 ft | 431 kts | 131° |
| 2026-05-08 15:06 | 44.29095 | 17.88692 | 20802 ft | 423 kts | 131° |
| 2026-05-08 15:07 | 44.27175 | 17.91749 | 20328 ft | 415 kts | 132° |
| 2026-05-08 15:07 | 44.25286 | 17.94754 | 19908 ft | 407 kts | 131° |
| 2026-05-08 15:07 | 44.23432 | 17.97699 | 19488 ft | 401 kts | 132° |
| 2026-05-08 15:07 | 44.21603 | 18.00602 | 19065 ft | 395 kts | 132° |
| 2026-05-08 15:08 | 44.19840 | 18.03466 | 18348 ft | 386 kts | 131° |
| 2026-05-08 15:08 | 44.18118 | 18.06286 | 17570 ft | 378 kts | 131° |
| 2026-05-08 15:08 | 44.16458 | 18.08996 | 17064 ft | 364 kts | 131° |
| 2026-05-08 15:08 | 44.14952 | 18.11772 | 16302 ft | 358 kts | 116° |
| 2026-05-08 15:09 | 44.14347 | 18.15080 | 15593 ft | 354 kts | 92° |
| 2026-05-08 15:09 | 44.14838 | 18.18406 | 14880 ft | 353 kts | 66° |
| 2026-05-08 15:09 | 44.16307 | 18.21108 | 14217 ft | 351 kts | 42° |
| 2026-05-08 15:09 | 44.18414 | 18.22753 | 13562 ft | 350 kts | 18° |
| 2026-05-08 15:10 | 44.20824 | 18.22974 | 12833 ft | 348 kts | 350° |
| 2026-05-08 15:10 | 44.23029 | 18.21688 | 12140 ft | 344 kts | 323° |
| 2026-05-08 15:10 | 44.24589 | 18.19203 | 11452 ft | 341 kts | 299° |
| 2026-05-08 15:10 | 44.25252 | 18.16087 | 10786 ft | 336 kts | 271° |
| 2026-05-08 15:11 | 44.24819 | 18.12953 | 10166 ft | 327 kts | 242° |
| 2026-05-08 15:11 | 44.23408 | 18.10616 | 9829 ft | 307 kts | 211° |
| 2026-05-08 15:11 | 44.21505 | 18.09700 | 9745 ft | 277 kts | 179° |
| 2026-05-08 15:11 | 44.19759 | 18.10306 | 9693 ft | 248 kts | 145° |
| 2026-05-08 15:12 | 44.18636 | 18.11919 | 9591 ft | 228 kts | 125° |
| 2026-05-08 15:12 | 44.17714 | 18.13727 | 9448 ft | 226 kts | 122° |
| 2026-05-08 15:12 | 44.17191 | 18.15747 | 9288 ft | 223 kts | 89° |
| 2026-05-08 15:12 | 44.17608 | 18.17765 | 9193 ft | 223 kts | 60° |
| 2026-05-08 15:13 | 44.18683 | 18.19373 | 9144 ft | 228 kts | 35° |
| 2026-05-08 15:13 | 44.20161 | 18.20078 | 9053 ft | 231 kts | 5° |
| 2026-05-08 15:13 | 44.21734 | 18.19647 | 9069 ft | 236 kts | 334° |
| 2026-05-08 15:13 | 44.22977 | 18.18124 | 9102 ft | 245 kts | 304° |
| 2026-05-08 15:14 | 44.23498 | 18.15838 | 9076 ft | 256 kts | 269° |
| 2026-05-08 15:14 | 44.23039 | 18.13462 | 9053 ft | 256 kts | 235° |
| 2026-05-08 15:14 | 44.21733 | 18.11856 | 8998 ft | 251 kts | 202° |
| 2026-05-08 15:14 | 44.20050 | 18.11355 | 8972 ft | 248 kts | 181° |
| 2026-05-08 15:15 | 44.18333 | 18.11060 | 8935 ft | 250 kts | 186° |
| 2026-05-08 15:15 | 44.16608 | 18.10681 | 8871 ft | 251 kts | 186° |
| 2026-05-08 15:15 | 44.14882 | 18.10304 | 8736 ft | 252 kts | 187° |
| 2026-05-08 15:15 | 44.13139 | 18.09920 | 8524 ft | 254 kts | 186° |
| 2026-05-08 15:16 | 44.11420 | 18.09546 | 8268 ft | 252 kts | 187° |
| 2026-05-08 15:16 | 44.09697 | 18.09170 | 7969 ft | 250 kts | 186° |
| 2026-05-08 15:16 | 44.07988 | 18.08800 | 7700 ft | 247 kts | 187° |
| 2026-05-08 15:16 | 44.06298 | 18.08431 | 7415 ft | 245 kts | 187° |
| 2026-05-08 15:17 | 44.04626 | 18.08066 | 7139 ft | 241 kts | 186° |
| 2026-05-08 15:17 | 44.03001 | 18.07708 | 6965 ft | 231 kts | 187° |
| 2026-05-08 15:17 | 44.01451 | 18.07374 | 6895 ft | 221 kts | 187° |
| 2026-05-08 15:17 | 43.99942 | 18.07047 | 6842 ft | 219 kts | 187° |
| 2026-05-08 15:18 | 43.98439 | 18.06711 | 6822 ft | 218 kts | 186° |
| 2026-05-08 15:18 | 43.96917 | 18.06419 | 6438 ft | 222 kts | 187° |
| 2026-05-08 15:18 | 43.95407 | 18.06081 | 6140 ft | 218 kts | 187° |
| 2026-05-08 15:18 | 43.93907 | 18.05971 | 5890 ft | 213 kts | 166° |
| 2026-05-08 15:19 | 43.92629 | 18.06848 | 5687 ft | 208 kts | 132° |
| 2026-05-08 15:19 | 43.91792 | 18.08445 | 5484 ft | 204 kts | 115° |
| 2026-05-08 15:19 | 43.91107 | 18.10169 | 5232 ft | 204 kts | 114° |
| 2026-05-08 15:19 | 43.90445 | 18.11871 | 4997 ft | 196 kts | 115° |
| 2026-05-08 15:20 | 43.89813 | 18.13521 | 4723 ft | 194 kts | 114° |
| 2026-05-08 15:20 | 43.89189 | 18.15176 | 4489 ft | 193 kts | 115° |
| 2026-05-08 15:20 | 43.88575 | 18.16789 | 4227 ft | 186 kts | 116° |
| 2026-05-08 15:20 | 43.87988 | 18.18369 | 3933 ft | 181 kts | 115° |
| 2026-05-08 15:21 | 43.87414 | 18.19897 | 3658 ft | 178 kts | 116° |
| 2026-05-08 15:21 | 43.86868 | 18.21340 | 3453 ft | 166 kts | 115° |
| 2026-05-08 15:21 | 43.86321 | 18.22732 | 3247 ft | 161 kts | 116° |
| 2026-05-08 15:21 | 43.85804 | 18.24083 | 3038 ft | 156 kts | 114° |
| 2026-05-08 15:22 | 43.85317 | 18.25434 | 2771 ft | 156 kts | 111° |
| 2026-05-08 15:22 | 43.84847 | 18.26760 | 2538 ft | 152 kts | 114° |
| 2026-05-08 15:22 | 43.84366 | 18.28090 | 2380 ft | 158 kts | 114° |
| 2026-05-08 15:22 | 43.83854 | 18.29468 | 2127 ft | 163 kts | 116° |
| 2026-05-08 15:23 | 43.83325 | 18.30867 | 1863 ft | 164 kts | 117° |
| 2026-05-08 15:23 | 43.82797 | 18.32252 | 1692 ft | 157 kts | 117° |
| 2026-05-08 15:23 | 43.82346 | 18.33455 | 1696 ft | 117 kts | 117° |
| 2026-05-08 15:23 | 43.82104 | 18.34092 | 1709 ft | 40 kts | 117° |
| 2026-05-08 15:24 | 43.81994 | 18.34381 | 1714 ft | 17 kts | 96° |
| 2026-05-08 15:24 | 43.81981 | 18.34458 | 1715 ft | 18 kts | 110° |